sensor_id;sensor_type;location;lat;lon;timestamp;P1;durP1;ratioP1;P2;durP2;ratioP2
691;SDS011;70475;50.084;8.576;2023-11-19T00:02:17;5.77;;;3.93;;
691;SDS011;70475;50.084;8.576;2023-11-19T00:04:45;6.63;;;3.33;;
691;SDS011;70475;50.084;8.576;2023-11-19T00:07:13;4.20;;;3.80;;
691;SDS011;70475;50.084;8.576;2023-11-19T00:09:41;4.17;;;3.73;;
691;SDS011;70475;50.084;8.576;2023-11-19T00:12:09;5.03;;;3.90;;
691;SDS011;70475;50.084;8.576;2023-11-19T00:14:37;3.10;;;2.57;;
691;SDS011;70475;50.084;8.576;2023-11-19T00:17:05;3.73;;;3.37;;
691;SDS011;70475;50.084;8.576;2023-11-19T00:19:34;5.87;;;3.27;;
691;SDS011;70475;50.084;8.576;2023-11-19T00:22:01;6.80;;;5.40;;
691;SDS011;70475;50.084;8.576;2023-11-19T00:24:30;4.47;;;3.53;;
691;SDS011;70475;50.084;8.576;2023-11-19T00:26:58;4.57;;;3.90;;
691;SDS011;70475;50.084;8.576;2023-11-19T00:29:25;4.50;;;4.00;;
691;SDS011;70475;50.084;8.576;2023-11-19T00:31:53;5.87;;;4.60;;
691;SDS011;70475;50.084;8.576;2023-11-19T00:34:21;7.97;;;3.60;;
691;SDS011;70475;50.084;8.576;2023-11-19T00:36:50;5.77;;;4.30;;
691;SDS011;70475;50.084;8.576;2023-11-19T00:39:17;5.40;;;3.80;;
691;SDS011;70475;50.084;8.576;2023-11-19T00:41:47;6.10;;;3.90;;
691;SDS011;70475;50.084;8.576;2023-11-19T00:44:15;8.03;;;4.43;;
691;SDS011;70475;50.084;8.576;2023-11-19T00:46:42;4.90;;;3.60;;
691;SDS011;70475;50.084;8.576;2023-11-19T00:49:10;5.63;;;4.27;;
691;SDS011;70475;50.084;8.576;2023-11-19T00:51:38;6.37;;;4.10;;
691;SDS011;70475;50.084;8.576;2023-11-19T00:54:07;5.80;;;4.53;;
691;SDS011;70475;50.084;8.576;2023-11-19T00:56:35;7.13;;;4.47;;
691;SDS011;70475;50.084;8.576;2023-11-19T00:59:03;4.90;;;4.23;;
691;SDS011;70475;50.084;8.576;2023-11-19T01:01:31;10.90;;;4.67;;
691;SDS011;70475;50.084;8.576;2023-11-19T01:03:58;5.03;;;3.17;;
691;SDS011;70475;50.084;8.576;2023-11-19T01:06:27;8.37;;;4.60;;
691;SDS011;70475;50.084;8.576;2023-11-19T01:08:55;6.83;;;5.30;;
691;SDS011;70475;50.084;8.576;2023-11-19T01:11:24;5.20;;;3.77;;
691;SDS011;70475;50.084;8.576;2023-11-19T01:13:52;5.57;;;4.77;;
691;SDS011;70475;50.084;8.576;2023-11-19T01:16:20;10.57;;;4.63;;
691;SDS011;70475;50.084;8.576;2023-11-19T01:18:48;8.70;;;5.00;;
691;SDS011;70475;50.084;8.576;2023-11-19T01:21:16;10.03;;;4.03;;
691;SDS011;70475;50.084;8.576;2023-11-19T01:23:44;11.53;;;5.40;;
691;SDS011;70475;50.084;8.576;2023-11-19T01:26:12;7.50;;;4.10;;
691;SDS011;70475;50.084;8.576;2023-11-19T01:28:41;4.70;;;3.87;;
691;SDS011;70475;50.084;8.576;2023-11-19T01:31:14;6.90;;;5.43;;
691;SDS011;70475;50.084;8.576;2023-11-19T01:33:42;6.57;;;4.03;;
691;SDS011;70475;50.084;8.576;2023-11-19T01:36:12;5.17;;;4.13;;
691;SDS011;70475;50.084;8.576;2023-11-19T01:38:40;7.33;;;4.40;;
691;SDS011;70475;50.084;8.576;2023-11-19T01:41:08;7.03;;;4.60;;
691;SDS011;70475;50.084;8.576;2023-11-19T01:43:36;3.60;;;2.80;;
691;SDS011;70475;50.084;8.576;2023-11-19T01:46:06;4.50;;;3.83;;
691;SDS011;70475;50.084;8.576;2023-11-19T01:48:36;4.17;;;3.20;;
691;SDS011;70475;50.084;8.576;2023-11-19T01:51:08;7.47;;;5.97;;
691;SDS011;70475;50.084;8.576;2023-11-19T01:53:36;5.87;;;4.43;;
691;SDS011;70475;50.084;8.576;2023-11-19T01:56:05;9.47;;;4.27;;
691;SDS011;70475;50.084;8.576;2023-11-19T01:58:35;5.00;;;4.40;;
691;SDS011;70475;50.084;8.576;2023-11-19T02:01:06;8.80;;;4.33;;
691;SDS011;70475;50.084;8.576;2023-11-19T02:03:34;3.93;;;2.63;;
691;SDS011;70475;50.084;8.576;2023-11-19T02:06:02;5.20;;;3.23;;
691;SDS011;70475;50.084;8.576;2023-11-19T02:08:31;3.40;;;3.10;;
691;SDS011;70475;50.084;8.576;2023-11-19T02:10:58;8.70;;;4.57;;
691;SDS011;70475;50.084;8.576;2023-11-19T02:13:26;4.50;;;3.93;;
691;SDS011;70475;50.084;8.576;2023-11-19T02:15:55;5.60;;;3.30;;
691;SDS011;70475;50.084;8.576;2023-11-19T02:18:25;7.70;;;3.50;;
691;SDS011;70475;50.084;8.576;2023-11-19T02:20:54;7.27;;;4.40;;
691;SDS011;70475;50.084;8.576;2023-11-19T02:23:23;4.77;;;3.50;;
691;SDS011;70475;50.084;8.576;2023-11-19T02:25:55;6.60;;;2.83;;
691;SDS011;70475;50.084;8.576;2023-11-19T02:28:30;5.13;;;4.20;;
691;SDS011;70475;50.084;8.576;2023-11-19T02:30:59;4.17;;;3.53;;
691;SDS011;70475;50.084;8.576;2023-11-19T02:33:27;3.17;;;2.43;;
691;SDS011;70475;50.084;8.576;2023-11-19T02:35:55;4.80;;;3.50;;
691;SDS011;70475;50.084;8.576;2023-11-19T02:38:23;6.17;;;3.00;;
691;SDS011;70475;50.084;8.576;2023-11-19T02:40:50;6.47;;;4.17;;
691;SDS011;70475;50.084;8.576;2023-11-19T02:43:18;5.73;;;3.70;;
691;SDS011;70475;50.084;8.576;2023-11-19T02:45:47;5.10;;;4.10;;
691;SDS011;70475;50.084;8.576;2023-11-19T02:48:15;5.47;;;4.13;;
691;SDS011;70475;50.084;8.576;2023-11-19T02:50:42;4.33;;;3.90;;
691;SDS011;70475;50.084;8.576;2023-11-19T02:53:10;6.80;;;4.20;;
691;SDS011;70475;50.084;8.576;2023-11-19T02:55:39;4.03;;;3.63;;
691;SDS011;70475;50.084;8.576;2023-11-19T02:58:07;5.10;;;3.73;;
691;SDS011;70475;50.084;8.576;2023-11-19T03:00:46;5.23;;;3.20;;
691;SDS011;70475;50.084;8.576;2023-11-19T03:03:18;4.13;;;3.73;;
691;SDS011;70475;50.084;8.576;2023-11-19T03:05:49;6.20;;;3.67;;
691;SDS011;70475;50.084;8.576;2023-11-19T03:08:16;4.13;;;2.43;;
691;SDS011;70475;50.084;8.576;2023-11-19T03:10:47;3.13;;;2.63;;
691;SDS011;70475;50.084;8.576;2023-11-19T03:13:15;3.83;;;3.43;;
691;SDS011;70475;50.084;8.576;2023-11-19T03:15:43;4.90;;;3.67;;
691;SDS011;70475;50.084;8.576;2023-11-19T03:18:12;7.33;;;5.70;;
691;SDS011;70475;50.084;8.576;2023-11-19T03:20:40;5.20;;;4.30;;
691;SDS011;70475;50.084;8.576;2023-11-19T03:23:07;6.80;;;2.67;;
691;SDS011;70475;50.084;8.576;2023-11-19T03:25:35;3.87;;;3.47;;
691;SDS011;70475;50.084;8.576;2023-11-19T03:28:03;5.53;;;4.20;;
691;SDS011;70475;50.084;8.576;2023-11-19T03:30:32;3.43;;;3.00;;
691;SDS011;70475;50.084;8.576;2023-11-19T03:33:01;3.63;;;2.80;;
691;SDS011;70475;50.084;8.576;2023-11-19T03:35:30;3.33;;;3.03;;
691;SDS011;70475;50.084;8.576;2023-11-19T03:37:59;3.47;;;2.97;;
691;SDS011;70475;50.084;8.576;2023-11-19T03:40:27;8.83;;;3.40;;
691;SDS011;70475;50.084;8.576;2023-11-19T03:42:55;3.90;;;3.27;;
691;SDS011;70475;50.084;8.576;2023-11-19T03:45:23;4.57;;;2.63;;
691;SDS011;70475;50.084;8.576;2023-11-19T03:47:51;2.70;;;2.47;;
691;SDS011;70475;50.084;8.576;2023-11-19T03:50:18;6.33;;;3.27;;
691;SDS011;70475;50.084;8.576;2023-11-19T03:52:49;3.27;;;2.10;;
691;SDS011;70475;50.084;8.576;2023-11-19T03:55:16;3.23;;;2.57;;
691;SDS011;70475;50.084;8.576;2023-11-19T03:57:44;4.33;;;2.40;;
691;SDS011;70475;50.084;8.576;2023-11-19T04:00:13;5.90;;;3.63;;
691;SDS011;70475;50.084;8.576;2023-11-19T04:02:42;3.80;;;2.20;;
691;SDS011;70475;50.084;8.576;2023-11-19T04:05:09;4.93;;;2.70;;
691;SDS011;70475;50.084;8.576;2023-11-19T04:07:37;5.03;;;3.17;;
691;SDS011;70475;50.084;8.576;2023-11-19T04:10:06;5.60;;;2.90;;
691;SDS011;70475;50.084;8.576;2023-11-19T04:12:35;2.37;;;2.17;;
691;SDS011;70475;50.084;8.576;2023-11-19T04:15:03;4.33;;;2.93;;
691;SDS011;70475;50.084;8.576;2023-11-19T04:17:32;2.77;;;2.57;;
691;SDS011;70475;50.084;8.576;2023-11-19T04:19:59;3.07;;;2.40;;
691;SDS011;70475;50.084;8.576;2023-11-19T04:22:27;3.47;;;2.70;;
691;SDS011;70475;50.084;8.576;2023-11-19T04:24:54;3.30;;;2.73;;
691;SDS011;70475;50.084;8.576;2023-11-19T04:27:23;3.00;;;1.67;;
691;SDS011;70475;50.084;8.576;2023-11-19T04:29:51;2.90;;;2.03;;
691;SDS011;70475;50.084;8.576;2023-11-19T04:32:20;2.90;;;1.90;;
691;SDS011;70475;50.084;8.576;2023-11-19T04:34:48;3.10;;;1.60;;
691;SDS011;70475;50.084;8.576;2023-11-19T04:37:15;3.53;;;2.33;;
691;SDS011;70475;50.084;8.576;2023-11-19T04:39:43;2.30;;;2.10;;
691;SDS011;70475;50.084;8.576;2023-11-19T04:42:11;6.10;;;2.30;;
691;SDS011;70475;50.084;8.576;2023-11-19T04:44:41;7.73;;;2.63;;
691;SDS011;70475;50.084;8.576;2023-11-19T04:47:10;2.50;;;2.30;;
691;SDS011;70475;50.084;8.576;2023-11-19T04:49:39;3.27;;;2.87;;
691;SDS011;70475;50.084;8.576;2023-11-19T04:52:09;2.97;;;2.43;;
691;SDS011;70475;50.084;8.576;2023-11-19T04:54:40;2.83;;;2.63;;
691;SDS011;70475;50.084;8.576;2023-11-19T04:57:08;4.50;;;2.07;;
691;SDS011;70475;50.084;8.576;2023-11-19T04:59:37;2.33;;;1.87;;
691;SDS011;70475;50.084;8.576;2023-11-19T05:02:06;3.63;;;2.50;;
691;SDS011;70475;50.084;8.576;2023-11-19T05:04:33;4.73;;;2.73;;
691;SDS011;70475;50.084;8.576;2023-11-19T05:07:01;3.83;;;2.67;;
691;SDS011;70475;50.084;8.576;2023-11-19T05:09:30;3.10;;;2.67;;
691;SDS011;70475;50.084;8.576;2023-11-19T05:11:58;3.50;;;2.00;;
691;SDS011;70475;50.084;8.576;2023-11-19T05:14:26;2.97;;;2.03;;
691;SDS011;70475;50.084;8.576;2023-11-19T05:16:54;3.37;;;1.93;;
691;SDS011;70475;50.084;8.576;2023-11-19T05:19:23;2.77;;;2.13;;
691;SDS011;70475;50.084;8.576;2023-11-19T05:21:50;3.73;;;2.50;;
691;SDS011;70475;50.084;8.576;2023-11-19T05:24:18;2.47;;;2.17;;
691;SDS011;70475;50.084;8.576;2023-11-19T05:26:46;2.43;;;2.23;;
691;SDS011;70475;50.084;8.576;2023-11-19T05:29:13;3.70;;;2.27;;
691;SDS011;70475;50.084;8.576;2023-11-19T05:31:41;2.60;;;2.07;;
691;SDS011;70475;50.084;8.576;2023-11-19T05:34:10;3.30;;;2.40;;
691;SDS011;70475;50.084;8.576;2023-11-19T05:36:39;2.87;;;1.60;;
691;SDS011;70475;50.084;8.576;2023-11-19T05:39:07;4.50;;;2.80;;
691;SDS011;70475;50.084;8.576;2023-11-19T05:41:34;4.50;;;3.07;;
691;SDS011;70475;50.084;8.576;2023-11-19T05:44:02;3.43;;;2.93;;
691;SDS011;70475;50.084;8.576;2023-11-19T05:46:29;2.17;;;1.63;;
691;SDS011;70475;50.084;8.576;2023-11-19T05:48:57;2.00;;;1.80;;
691;SDS011;70475;50.084;8.576;2023-11-19T05:51:25;3.97;;;1.87;;
691;SDS011;70475;50.084;8.576;2023-11-19T05:53:54;3.60;;;2.47;;
691;SDS011;70475;50.084;8.576;2023-11-19T05:56:22;2.17;;;1.97;;
691;SDS011;70475;50.084;8.576;2023-11-19T05:58:49;5.33;;;2.60;;
691;SDS011;70475;50.084;8.576;2023-11-19T06:01:17;3.10;;;2.27;;
691;SDS011;70475;50.084;8.576;2023-11-19T06:03:45;3.10;;;2.20;;
691;SDS011;70475;50.084;8.576;2023-11-19T06:06:16;2.87;;;2.57;;
691;SDS011;70475;50.084;8.576;2023-11-19T06:08:44;2.37;;;1.93;;
691;SDS011;70475;50.084;8.576;2023-11-19T06:11:14;9.73;;;2.50;;
691;SDS011;70475;50.084;8.576;2023-11-19T06:13:45;2.90;;;2.30;;
691;SDS011;70475;50.084;8.576;2023-11-19T06:16:14;3.00;;;2.30;;
691;SDS011;70475;50.084;8.576;2023-11-19T06:18:41;2.27;;;1.70;;
691;SDS011;70475;50.084;8.576;2023-11-19T06:21:10;2.80;;;1.67;;
691;SDS011;70475;50.084;8.576;2023-11-19T06:23:38;2.20;;;1.80;;
691;SDS011;70475;50.084;8.576;2023-11-19T06:26:05;2.10;;;1.60;;
691;SDS011;70475;50.084;8.576;2023-11-19T06:28:34;2.63;;;1.93;;
691;SDS011;70475;50.084;8.576;2023-11-19T06:31:03;2.93;;;2.43;;
691;SDS011;70475;50.084;8.576;2023-11-19T06:33:31;2.77;;;1.13;;
691;SDS011;70475;50.084;8.576;2023-11-19T06:35:58;2.40;;;1.57;;
691;SDS011;70475;50.084;8.576;2023-11-19T06:38:26;1.70;;;1.30;;
691;SDS011;70475;50.084;8.576;2023-11-19T06:40:54;1.40;;;1.00;;
691;SDS011;70475;50.084;8.576;2023-11-19T06:43:21;2.70;;;1.80;;
691;SDS011;70475;50.084;8.576;2023-11-19T06:45:50;2.13;;;1.63;;
691;SDS011;70475;50.084;8.576;2023-11-19T06:48:18;2.33;;;1.87;;
691;SDS011;70475;50.084;8.576;2023-11-19T06:50:45;2.33;;;1.70;;
691;SDS011;70475;50.084;8.576;2023-11-19T06:53:13;3.10;;;1.83;;
691;SDS011;70475;50.084;8.576;2023-11-19T06:55:40;1.70;;;1.60;;
691;SDS011;70475;50.084;8.576;2023-11-19T06:58:08;2.67;;;2.13;;
691;SDS011;70475;50.084;8.576;2023-11-19T07:00:36;2.37;;;1.60;;
691;SDS011;70475;50.084;8.576;2023-11-19T07:03:04;1.77;;;1.30;;
691;SDS011;70475;50.084;8.576;2023-11-19T07:05:35;3.27;;;1.77;;
691;SDS011;70475;50.084;8.576;2023-11-19T07:08:05;1.73;;;1.30;;
691;SDS011;70475;50.084;8.576;2023-11-19T07:10:33;2.63;;;1.63;;
691;SDS011;70475;50.084;8.576;2023-11-19T07:13:01;2.40;;;1.97;;
691;SDS011;70475;50.084;8.576;2023-11-19T07:15:32;2.43;;;1.57;;
691;SDS011;70475;50.084;8.576;2023-11-19T07:17:59;1.77;;;1.63;;
691;SDS011;70475;50.084;8.576;2023-11-19T07:20:30;1.73;;;1.37;;
691;SDS011;70475;50.084;8.576;2023-11-19T07:22:59;7.60;;;2.10;;
691;SDS011;70475;50.084;8.576;2023-11-19T07:25:26;2.43;;;1.30;;
691;SDS011;70475;50.084;8.576;2023-11-19T07:27:54;2.30;;;1.30;;
691;SDS011;70475;50.084;8.576;2023-11-19T07:30:22;3.00;;;2.07;;
691;SDS011;70475;50.084;8.576;2023-11-19T07:32:49;2.40;;;1.50;;
691;SDS011;70475;50.084;8.576;2023-11-19T07:35:17;1.30;;;1.10;;
691;SDS011;70475;50.084;8.576;2023-11-19T07:37:46;4.03;;;2.00;;
691;SDS011;70475;50.084;8.576;2023-11-19T07:40:16;2.70;;;2.23;;
691;SDS011;70475;50.084;8.576;2023-11-19T07:42:44;2.17;;;1.97;;
691;SDS011;70475;50.084;8.576;2023-11-19T07:45:11;2.70;;;2.10;;
691;SDS011;70475;50.084;8.576;2023-11-19T07:47:39;3.00;;;2.10;;
691;SDS011;70475;50.084;8.576;2023-11-19T07:50:07;3.43;;;2.47;;
691;SDS011;70475;50.084;8.576;2023-11-19T07:52:36;3.23;;;2.23;;
691;SDS011;70475;50.084;8.576;2023-11-19T07:55:06;2.70;;;2.03;;
691;SDS011;70475;50.084;8.576;2023-11-19T07:57:34;3.63;;;2.57;;
691;SDS011;70475;50.084;8.576;2023-11-19T08:00:02;7.07;;;2.40;;
691;SDS011;70475;50.084;8.576;2023-11-19T08:02:30;3.13;;;2.37;;
691;SDS011;70475;50.084;8.576;2023-11-19T08:04:57;3.83;;;2.90;;
691;SDS011;70475;50.084;8.576;2023-11-19T08:07:25;5.17;;;2.20;;
691;SDS011;70475;50.084;8.576;2023-11-19T08:09:53;4.57;;;2.90;;
691;SDS011;70475;50.084;8.576;2023-11-19T08:12:22;3.00;;;2.00;;
691;SDS011;70475;50.084;8.576;2023-11-19T08:14:49;5.00;;;2.60;;
691;SDS011;70475;50.084;8.576;2023-11-19T08:17:17;3.00;;;2.27;;
691;SDS011;70475;50.084;8.576;2023-11-19T08:19:44;2.70;;;2.33;;
691;SDS011;70475;50.084;8.576;2023-11-19T08:22:12;2.40;;;2.10;;
691;SDS011;70475;50.084;8.576;2023-11-19T08:24:39;2.13;;;1.63;;
691;SDS011;70475;50.084;8.576;2023-11-19T08:27:07;2.90;;;1.83;;
691;SDS011;70475;50.084;8.576;2023-11-19T08:29:36;5.10;;;2.57;;
691;SDS011;70475;50.084;8.576;2023-11-19T08:32:04;2.13;;;1.87;;
691;SDS011;70475;50.084;8.576;2023-11-19T08:34:33;2.77;;;2.10;;
691;SDS011;70475;50.084;8.576;2023-11-19T08:37:00;2.83;;;1.93;;
691;SDS011;70475;50.084;8.576;2023-11-19T08:39:28;3.10;;;2.17;;
691;SDS011;70475;50.084;8.576;2023-11-19T08:41:56;2.13;;;1.60;;
691;SDS011;70475;50.084;8.576;2023-11-19T08:44:24;3.80;;;2.80;;
691;SDS011;70475;50.084;8.576;2023-11-19T08:46:53;3.23;;;2.37;;
691;SDS011;70475;50.084;8.576;2023-11-19T08:49:20;4.77;;;3.00;;
691;SDS011;70475;50.084;8.576;2023-11-19T08:51:49;3.37;;;3.07;;
691;SDS011;70475;50.084;8.576;2023-11-19T08:54:16;2.90;;;2.07;;
691;SDS011;70475;50.084;8.576;2023-11-19T08:56:46;3.20;;;2.83;;
691;SDS011;70475;50.084;8.576;2023-11-19T08:59:13;2.80;;;2.13;;
691;SDS011;70475;50.084;8.576;2023-11-19T09:01:43;3.43;;;2.40;;
691;SDS011;70475;50.084;8.576;2023-11-19T09:04:12;3.10;;;2.30;;
691;SDS011;70475;50.084;8.576;2023-11-19T09:06:40;3.17;;;2.60;;
691;SDS011;70475;50.084;8.576;2023-11-19T09:09:08;3.63;;;2.80;;
691;SDS011;70475;50.084;8.576;2023-11-19T09:11:36;6.50;;;2.90;;
691;SDS011;70475;50.084;8.576;2023-11-19T09:14:04;3.00;;;2.20;;
691;SDS011;70475;50.084;8.576;2023-11-19T09:16:32;5.50;;;2.80;;
691;SDS011;70475;50.084;8.576;2023-11-19T09:18:59;3.30;;;2.20;;
691;SDS011;70475;50.084;8.576;2023-11-19T09:21:33;3.20;;;2.27;;
691;SDS011;70475;50.084;8.576;2023-11-19T09:24:04;3.07;;;2.33;;
691;SDS011;70475;50.084;8.576;2023-11-19T09:26:33;3.77;;;2.10;;
691;SDS011;70475;50.084;8.576;2023-11-19T09:29:02;3.10;;;2.63;;
691;SDS011;70475;50.084;8.576;2023-11-19T09:31:29;2.33;;;1.90;;
691;SDS011;70475;50.084;8.576;2023-11-19T09:33:58;4.60;;;3.23;;
691;SDS011;70475;50.084;8.576;2023-11-19T09:36:26;2.40;;;2.20;;
691;SDS011;70475;50.084;8.576;2023-11-19T09:38:55;3.83;;;2.10;;
691;SDS011;70475;50.084;8.576;2023-11-19T09:41:22;3.10;;;2.27;;
691;SDS011;70475;50.084;8.576;2023-11-19T09:43:51;3.33;;;3.00;;
691;SDS011;70475;50.084;8.576;2023-11-19T09:46:19;5.00;;;3.00;;
691;SDS011;70475;50.084;8.576;2023-11-19T09:48:47;6.33;;;2.67;;
691;SDS011;70475;50.084;8.576;2023-11-19T09:51:19;3.30;;;2.80;;
691;SDS011;70475;50.084;8.576;2023-11-19T09:53:46;2.90;;;2.33;;
691;SDS011;70475;50.084;8.576;2023-11-19T09:56:15;4.93;;;2.43;;
691;SDS011;70475;50.084;8.576;2023-11-19T09:58:44;6.43;;;2.00;;
691;SDS011;70475;50.084;8.576;2023-11-19T10:01:13;3.23;;;1.93;;
691;SDS011;70475;50.084;8.576;2023-11-19T10:03:44;2.70;;;1.90;;
691;SDS011;70475;50.084;8.576;2023-11-19T10:06:15;3.17;;;2.43;;
691;SDS011;70475;50.084;8.576;2023-11-19T10:08:45;3.30;;;2.17;;
691;SDS011;70475;50.084;8.576;2023-11-19T10:11:12;2.80;;;1.40;;
691;SDS011;70475;50.084;8.576;2023-11-19T10:13:42;1.43;;;1.07;;
691;SDS011;70475;50.084;8.576;2023-11-19T10:16:14;3.63;;;2.07;;
691;SDS011;70475;50.084;8.576;2023-11-19T10:18:45;2.27;;;1.27;;
691;SDS011;70475;50.084;8.576;2023-11-19T10:21:13;2.00;;;1.60;;
691;SDS011;70475;50.084;8.576;2023-11-19T10:23:50;2.30;;;1.60;;
691;SDS011;70475;50.084;8.576;2023-11-19T10:26:19;1.43;;;1.10;;
691;SDS011;70475;50.084;8.576;2023-11-19T10:28:49;2.10;;;1.90;;
691;SDS011;70475;50.084;8.576;2023-11-19T10:31:17;6.17;;;1.93;;
691;SDS011;70475;50.084;8.576;2023-11-19T10:33:45;6.83;;;1.63;;
691;SDS011;70475;50.084;8.576;2023-11-19T10:36:14;1.70;;;1.50;;
691;SDS011;70475;50.084;8.576;2023-11-19T10:38:42;2.40;;;1.17;;
691;SDS011;70475;50.084;8.576;2023-11-19T10:41:26;2.90;;;1.53;;
691;SDS011;70475;50.084;8.576;2023-11-19T10:43:55;3.53;;;1.97;;
691;SDS011;70475;50.084;8.576;2023-11-19T10:46:23;3.53;;;1.80;;
691;SDS011;70475;50.084;8.576;2023-11-19T10:49:04;5.17;;;1.67;;
691;SDS011;70475;50.084;8.576;2023-11-19T10:51:32;6.20;;;1.80;;
691;SDS011;70475;50.084;8.576;2023-11-19T10:54:02;14.03;;;1.80;;
691;SDS011;70475;50.084;8.576;2023-11-19T10:56:31;3.60;;;1.50;;
691;SDS011;70475;50.084;8.576;2023-11-19T10:59:01;2.33;;;1.30;;
691;SDS011;70475;50.084;8.576;2023-11-19T11:01:32;18.33;;;2.03;;
691;SDS011;70475;50.084;8.576;2023-11-19T11:04:06;5.07;;;1.13;;
691;SDS011;70475;50.084;8.576;2023-11-19T11:06:40;3.27;;;0.80;;
691;SDS011;70475;50.084;8.576;2023-11-19T11:09:08;9.73;;;0.80;;
691;SDS011;70475;50.084;8.576;2023-11-19T11:11:39;2.77;;;1.33;;
691;SDS011;70475;50.084;8.576;2023-11-19T11:14:11;1.30;;;0.70;;
691;SDS011;70475;50.084;8.576;2023-11-19T11:16:40;5.10;;;1.93;;
691;SDS011;70475;50.084;8.576;2023-11-19T11:19:10;3.03;;;0.80;;
691;SDS011;70475;50.084;8.576;2023-11-19T11:21:38;3.50;;;0.90;;
691;SDS011;70475;50.084;8.576;2023-11-19T11:24:13;5.30;;;0.80;;
691;SDS011;70475;50.084;8.576;2023-11-19T11:29:47;8.17;;;1.20;;
691;SDS011;70475;50.084;8.576;2023-11-19T11:32:27;3.53;;;1.30;;
691;SDS011;70475;50.084;8.576;2023-11-19T11:35:07;2.37;;;0.87;;
691;SDS011;70475;50.084;8.576;2023-11-19T11:37:44;4.73;;;0.80;;
691;SDS011;70475;50.084;8.576;2023-11-19T11:40:17;3.23;;;1.37;;
691;SDS011;70475;50.084;8.576;2023-11-19T11:42:45;6.23;;;0.90;;
691;SDS011;70475;50.084;8.576;2023-11-19T11:45:14;3.27;;;0.83;;
691;SDS011;70475;50.084;8.576;2023-11-19T11:50:49;2.97;;;0.87;;
691;SDS011;70475;50.084;8.576;2023-11-19T11:53:21;5.90;;;1.43;;
691;SDS011;70475;50.084;8.576;2023-11-19T11:55:54;4.17;;;1.33;;
691;SDS011;70475;50.084;8.576;2023-11-19T11:58:29;1.40;;;0.83;;
691;SDS011;70475;50.084;8.576;2023-11-19T12:01:00;8.50;;;1.13;;
691;SDS011;70475;50.084;8.576;2023-11-19T12:03:29;5.10;;;1.13;;
691;SDS011;70475;50.084;8.576;2023-11-19T12:05:59;5.37;;;1.73;;
691;SDS011;70475;50.084;8.576;2023-11-19T12:08:28;3.93;;;1.50;;
691;SDS011;70475;50.084;8.576;2023-11-19T12:10:57;4.30;;;1.10;;
691;SDS011;70475;50.084;8.576;2023-11-19T12:13:29;3.90;;;1.07;;
691;SDS011;70475;50.084;8.576;2023-11-19T12:16:14;1.73;;;1.00;;
691;SDS011;70475;50.084;8.576;2023-11-19T12:18:42;3.07;;;0.90;;
691;SDS011;70475;50.084;8.576;2023-11-19T12:21:10;2.93;;;1.40;;
691;SDS011;70475;50.084;8.576;2023-11-19T12:23:46;5.30;;;0.90;;
691;SDS011;70475;50.084;8.576;2023-11-19T12:26:21;7.00;;;1.80;;
691;SDS011;70475;50.084;8.576;2023-11-19T12:28:58;7.30;;;1.07;;
691;SDS011;70475;50.084;8.576;2023-11-19T12:31:27;2.80;;;0.70;;
691;SDS011;70475;50.084;8.576;2023-11-19T12:33:55;2.73;;;0.90;;
691;SDS011;70475;50.084;8.576;2023-11-19T12:36:23;3.90;;;1.23;;
691;SDS011;70475;50.084;8.576;2023-11-19T12:38:50;3.93;;;1.30;;
691;SDS011;70475;50.084;8.576;2023-11-19T12:41:18;4.23;;;0.83;;
691;SDS011;70475;50.084;8.576;2023-11-19T12:43:49;6.97;;;1.37;;
691;SDS011;70475;50.084;8.576;2023-11-19T12:46:18;4.73;;;0.80;;
691;SDS011;70475;50.084;8.576;2023-11-19T12:48:48;2.27;;;1.00;;
691;SDS011;70475;50.084;8.576;2023-11-19T12:51:16;2.20;;;0.80;;
691;SDS011;70475;50.084;8.576;2023-11-19T12:53:47;4.60;;;0.93;;
691;SDS011;70475;50.084;8.576;2023-11-19T12:56:16;1.23;;;0.90;;
691;SDS011;70475;50.084;8.576;2023-11-19T12:58:43;2.60;;;0.63;;
691;SDS011;70475;50.084;8.576;2023-11-19T13:01:15;4.43;;;1.50;;
691;SDS011;70475;50.084;8.576;2023-11-19T13:03:44;9.10;;;1.30;;
691;SDS011;70475;50.084;8.576;2023-11-19T13:06:13;11.47;;;1.77;;
691;SDS011;70475;50.084;8.576;2023-11-19T13:08:43;7.60;;;2.50;;
691;SDS011;70475;50.084;8.576;2023-11-19T13:11:11;6.20;;;1.53;;
691;SDS011;70475;50.084;8.576;2023-11-19T13:13:55;6.40;;;1.77;;
691;SDS011;70475;50.084;8.576;2023-11-19T13:16:24;4.67;;;1.00;;
691;SDS011;70475;50.084;8.576;2023-11-19T13:18:53;4.23;;;1.37;;
691;SDS011;70475;50.084;8.576;2023-11-19T13:21:22;2.23;;;1.03;;
691;SDS011;70475;50.084;8.576;2023-11-19T13:23:50;8.33;;;0.93;;
691;SDS011;70475;50.084;8.576;2023-11-19T13:26:18;2.80;;;1.30;;
691;SDS011;70475;50.084;8.576;2023-11-19T13:28:45;2.33;;;0.87;;
691;SDS011;70475;50.084;8.576;2023-11-19T13:31:13;2.00;;;1.33;;
691;SDS011;70475;50.084;8.576;2023-11-19T13:33:41;1.90;;;0.70;;
691;SDS011;70475;50.084;8.576;2023-11-19T13:36:09;0.90;;;0.63;;
691;SDS011;70475;50.084;8.576;2023-11-19T13:38:43;1.70;;;0.67;;
691;SDS011;70475;50.084;8.576;2023-11-19T13:41:11;2.20;;;0.80;;
691;SDS011;70475;50.084;8.576;2023-11-19T13:43:40;2.20;;;0.87;;
691;SDS011;70475;50.084;8.576;2023-11-19T13:46:07;5.87;;;0.70;;
691;SDS011;70475;50.084;8.576;2023-11-19T13:48:36;2.97;;;0.70;;
691;SDS011;70475;50.084;8.576;2023-11-19T13:51:05;4.00;;;1.00;;
691;SDS011;70475;50.084;8.576;2023-11-19T13:53:33;5.33;;;0.77;;
691;SDS011;70475;50.084;8.576;2023-11-19T13:56:05;6.33;;;0.97;;
691;SDS011;70475;50.084;8.576;2023-11-19T13:58:34;2.40;;;0.70;;
691;SDS011;70475;50.084;8.576;2023-11-19T14:01:01;7.77;;;2.07;;
691;SDS011;70475;50.084;8.576;2023-11-19T14:03:29;5.47;;;1.13;;
691;SDS011;70475;50.084;8.576;2023-11-19T14:05:57;3.80;;;0.80;;
691;SDS011;70475;50.084;8.576;2023-11-19T14:08:24;1.73;;;0.97;;
691;SDS011;70475;50.084;8.576;2023-11-19T14:10:52;5.10;;;0.97;;
691;SDS011;70475;50.084;8.576;2023-11-19T14:13:22;3.77;;;1.43;;
691;SDS011;70475;50.084;8.576;2023-11-19T14:15:50;3.07;;;0.70;;
691;SDS011;70475;50.084;8.576;2023-11-19T14:18:18;3.30;;;1.37;;
691;SDS011;70475;50.084;8.576;2023-11-19T14:20:46;4.03;;;1.10;;
691;SDS011;70475;50.084;8.576;2023-11-19T14:23:13;2.00;;;0.70;;
691;SDS011;70475;50.084;8.576;2023-11-19T14:25:41;3.57;;;0.83;;
691;SDS011;70475;50.084;8.576;2023-11-19T14:28:10;8.53;;;1.33;;
691;SDS011;70475;50.084;8.576;2023-11-19T14:30:39;2.20;;;0.77;;
691;SDS011;70475;50.084;8.576;2023-11-19T14:33:07;5.73;;;0.80;;
691;SDS011;70475;50.084;8.576;2023-11-19T14:35:35;4.40;;;1.43;;
691;SDS011;70475;50.084;8.576;2023-11-19T14:38:03;3.47;;;1.13;;
691;SDS011;70475;50.084;8.576;2023-11-19T14:40:33;1.50;;;1.00;;
691;SDS011;70475;50.084;8.576;2023-11-19T14:43:04;1.63;;;0.83;;
691;SDS011;70475;50.084;8.576;2023-11-19T14:45:31;3.60;;;1.43;;
691;SDS011;70475;50.084;8.576;2023-11-19T14:48:11;2.83;;;0.80;;
691;SDS011;70475;50.084;8.576;2023-11-19T14:50:39;13.57;;;1.70;;
691;SDS011;70475;50.084;8.576;2023-11-19T14:53:06;0.93;;;0.70;;
691;SDS011;70475;50.084;8.576;2023-11-19T14:55:34;1.27;;;0.80;;
691;SDS011;70475;50.084;8.576;2023-11-19T14:58:01;4.30;;;1.20;;
691;SDS011;70475;50.084;8.576;2023-11-19T15:00:36;6.83;;;1.17;;
691;SDS011;70475;50.084;8.576;2023-11-19T15:03:04;4.17;;;1.13;;
691;SDS011;70475;50.084;8.576;2023-11-19T15:05:34;1.30;;;0.70;;
691;SDS011;70475;50.084;8.576;2023-11-19T15:08:01;2.23;;;1.00;;
691;SDS011;70475;50.084;8.576;2023-11-19T15:10:30;6.63;;;2.97;;
691;SDS011;70475;50.084;8.576;2023-11-19T15:12:57;3.33;;;0.70;;
691;SDS011;70475;50.084;8.576;2023-11-19T15:15:25;0.73;;;0.43;;
691;SDS011;70475;50.084;8.576;2023-11-19T15:17:56;2.63;;;0.77;;
691;SDS011;70475;50.084;8.576;2023-11-19T15:20:23;6.93;;;1.27;;
691;SDS011;70475;50.084;8.576;2023-11-19T15:22:53;11.23;;;1.50;;
691;SDS011;70475;50.084;8.576;2023-11-19T15:25:21;2.10;;;0.80;;
691;SDS011;70475;50.084;8.576;2023-11-19T15:27:50;8.13;;;1.57;;
691;SDS011;70475;50.084;8.576;2023-11-19T15:30:17;3.00;;;0.70;;
691;SDS011;70475;50.084;8.576;2023-11-19T15:32:45;5.23;;;0.80;;